Ευχαριστούμε που συμβάλλετε στη διατήρηση της σελίδας μας.

Thank you for your donations, it really helps to maintain the page.


Στατιστικά Καιρού & Άλλα..









Δείκτης Πυρκαγιάς (FWI)

Καστελόκαμπος Ρίον more information Kastelokampos Rion


Κάμερα Ρομανού more information Romanos Cam


προειδοποίηση για Καταιγίδες more information blitzortung!


Ραντάρ Βροχής more information rain snow radar


Επισκεφθείτε άλλες ιστοσελίδες καιρού μας:

Meteopatras.Eu in
Euweather NetworkMeteopatras.Eu in Euweather Network

Weather CloudWeather Cloud

PWS WeatherPWS Weather

Awekas NetWeather data from station Patra-Ketx

WunderGroundWeather data from station Patra-Ketx



Καταιγίδες Από : 24-05-2019 11:00 Μέχρι : 20:00 προειδοποίηση για : Καταιγίδες Επίπεδο : Κίτρινο info button

Ιδιοκτησία και Επίβλεψη : Μουλάς Αντρέας

 Πάτρα, Ελλάδα - Γ.Πλάτος : 38°14'21" Β - Γ.Μήκος : 21°45'5" Α - Υψόμετρο : 56μ

Κοντινές Αναφορές METAR

   
LGRX - Araxos
Ενημερώθηκε: 24-05-2019 10:20
Μερικώς Νεφελώδης  
Μερικώς Νεφελώδης  
   Άνεμος: Δύση 9.3 km/h
Άνεμος: Δύση 9.3 km/h
Θερμοκρασία: 20°C
Σημείο Δρόσου: 16°C
Υγρασία: 78%
Βαρόμετρο: 1013 hPa
Σύννεφα: Μερικώς Νεφελώδης
Ορατότητα: More than 10 km
Λεπτομέρειες Σύννεφου: Μερικώς Νεφελώδης 1800 ft
LGRX 240720Z 26005KT 9999 SCT018 20/16 Q1013
LGAD - Andravida
Ενημερώθηκε: 24-05-2019 10:20
Μερικώς Νεφελώδης  
Μερικώς Νεφελώδης  
   Άνεμος: ΔΒΔ 9.3 km/h
Άνεμος: ΔΒΔ 9.3 km/h
Θερμοκρασία: 21°C
Σημείο Δρόσου: 12°C
Υγρασία: 57%
Βαρόμετρο: 1013 hPa
Σύννεφα: Μερικώς Νεφελώδης
Ορατότητα: More than 10 km
Λεπτομέρειες Σύννεφου: Μερικώς Νεφελώδης 1800 ft
LGAD 240720Z 30005KT 9999 SCT018 21/12 Q1013
LGZA - Zakinthos
Ενημερώθηκε: 24-05-2019 09:50
Κυρίως Αίθριος  
Κυρίως Αίθριος  
   Άνεμος: ΒΔ 16.7 km/h
Άνεμος: ΒΔ 16.7 km/h
Θερμοκρασία: 20°C
Σημείο Δρόσου: 12°C
Υγρασία: 60%
Βαρόμετρο: 1013 hPa
Σύννεφα: Κυρίως Αίθριος
Ορατότητα: More than 10 km
Λεπτομέρειες Σύννεφου: Κυρίως Αίθριος 2500 ft
LGZA 240650Z 32009KT 9999 FEW025 20/12 Q1013
LGKF - Kefallinia
Ενημερώθηκε: 24-05-2019 09:50
Μερικώς Νεφελώδης  
Μερικώς Νεφελώδης  
   Άνεμος: ΒΔ 14.8 km/h
Άνεμος: ΒΔ 14.8 km/h
Θερμοκρασία: 20°C
Σημείο Δρόσου: 15°C
Υγρασία: 73%
Βαρόμετρο: 1013 hPa
Σύννεφα: Μερικώς Νεφελώδης
Ορατότητα: More than 10 km
Λεπτομέρειες Σύννεφου: Κυρίως Αίθριος 1500 ft,
Μερικώς Νεφελώδης 1800 ft
LGKF 240650Z 32008KT 9999 FEW015 SCT018 20/15 Q1013
LGPZ - Preveza
Ενημερώθηκε: 24-05-2019 10:20
Κυρίως Αίθριος  
Κυρίως Αίθριος  
   Άνεμος: ΔΝΔ 9.3 km/h
Άνεμος: ΔΝΔ 9.3 km/h
Θερμοκρασία: 20°C
Σημείο Δρόσου: 18°C
Υγρασία: 88%
Βαρόμετρο: 1013 hPa
Σύννεφα: Κυρίως Αίθριος
Ορατότητα: More than 10 km
Λεπτομέρειες Σύννεφου: Κυρίως Αίθριος 2000 ft
LGPZ 240720Z 25005KT 9999 FEW020 20/18 Q1013
LGKL - Kalamata
Ενημερώθηκε: 24-05-2019 10:20
Κυρίως Αίθριος  
Κυρίως Αίθριος  
   Άνεμος: ΒΒΑ 18.5 km/h
Άνεμος: ΒΒΑ 18.5 km/h
Θερμοκρασία: 22°C
Σημείο Δρόσου: 11°C
Υγρασία: 50%
Βαρόμετρο: 1012 hPa
Σύννεφα: Κυρίως Αίθριος
Ορατότητα: More than 10 km
Λεπτομέρειες Σύννεφου: Κυρίως Αίθριος 3000 ft
LGKL 240720Z 03010KT 9999 FEW030 22/11 Q1012
LGKR - Kerkyra
Ενημερώθηκε: 24-05-2019 10:20
Κυρίως Αίθριος  
Κυρίως Αίθριος  
   Άνεμος: ΑΝΑ 7.4 km/h
Άνεμος: ΑΝΑ 7.4 km/h
Θερμοκρασία: 20°C
Σημείο Δρόσου: 14°C
Υγρασία: 69%
Βαρόμετρο: 1012 hPa
Σύννεφα: Κυρίως Αίθριος
Ορατότητα: More than 10 km
Λεπτομέρειες Σύννεφου: Κυρίως Αίθριος 1800 ft
LGKR 240720Z 11004KT 9999 FEW018 20/14 Q1012 NOSIG
LGIO - Iwannina
Ενημερώθηκε: 24-05-2019 10:20
Μερικώς Νεφελώδης  
Μερικώς Νεφελώδης  
   Άνεμος: ποικίλλει Άπνοια
Άνεμος: ποικίλλει Άπνοια
Θερμοκρασία: 16°C
Σημείο Δρόσου: 8°C
Υγρασία: 59%
Βαρόμετρο: 1013 hPa
Σύννεφα: Μερικώς Νεφελώδης
Ορατότητα: More than 10 km
Λεπτομέρειες Σύννεφου: Μερικώς Νεφελώδης 4000 ft
LGIO 240720Z /////KT 9999 SCT040 16/08 Q1013
LGPZ - Leykada
Ενημερώθηκε: 24-05-2019 10:20
Κυρίως Αίθριος  
Κυρίως Αίθριος  
   Άνεμος: ΔΝΔ 9.3 km/h
Άνεμος: ΔΝΔ 9.3 km/h
Θερμοκρασία: 20°C
Σημείο Δρόσου: 18°C
Υγρασία: 88%
Βαρόμετρο: 1013 hPa
Σύννεφα: Κυρίως Αίθριος
Ορατότητα: More than 10 km
Λεπτομέρειες Σύννεφου: Κυρίως Αίθριος 2000 ft
LGPZ 240720Z 25005KT 9999 FEW020 20/18 Q1013
LGEL - Elefsina
Ενημερώθηκε: 24-05-2019 10:20
Κυρίως Αίθριος  
Κυρίως Αίθριος  
   Άνεμος: Βοράς 7.4 km/h
Άνεμος: Βοράς 7.4 km/h
Θερμοκρασία: 23°C
Σημείο Δρόσου: 9°C
Υγρασία: 41%
Βαρόμετρο: 1009 hPa
Σύννεφα: Κυρίως Αίθριος
Ορατότητα: More than 10 km
Λεπτομέρειες Σύννεφου: Κυρίως Αίθριος 2500 ft
LGEL 240720Z 01004KT 9999 FEW025 23/09 Q1009
LGKC - Kythira
Ενημερώθηκε: 23-05-2019 16:50
ΜΗ τρέχουσες
Αίθριος  
Αίθριος  
   Άνεμος: Δύση 14.8 km/h
Άνεμος: Δύση 14.8 km/h
Θερμοκρασία: 24°C
Σημείο Δρόσου: 16°C
Υγρασία: 61%
Βαρόμετρο: 1013 hPa
Ορατότητα: More than 10 km
Λεπτομέρειες Σύννεφου: Αίθριος
LGKC 231350Z 28008KT CAVOK 24/16 Q1013
LGIR - Hraklio
Ενημερώθηκε: 24-05-2019 10:20
Αίθριος  
Αίθριος  
   Άνεμος: ΒΔ 14.8 km/h
Άνεμος: ΒΔ 14.8 km/h
Θερμοκρασία: 24°C
Σημείο Δρόσου: 14°C
Υγρασία: 54%
Βαρόμετρο: 1011 hPa
Ορατότητα: More than 10 km
Λεπτομέρειες Σύννεφου: Αίθριος
LGIR 240720Z 32008KT CAVOK 24/14 Q1011 NOSIG

Script developed by  Saratoga-weather.org Προσαρμοσμένος για το πρότυπο του  Weerstation Leuven

Μπορείτε να βρείτε πληροφορίες καιρού μας και σε:

European Weather Network

WeatherCloud

Weather Underground

Δύκτιο Σταθμών Ελλάδας

AWEKAS

HAMweather, WeatherForYou, PWS Weather

MeteoPatras.Eu